KBEC/BEC METAR and TAF weather

Enter ICAO airport designator
Station Type Date Time Source
KBEC METAR 2020/09/20 14:15 UTC NOAA

KBEC 201415Z AUTO 16008KT 10SM CLR 15/12 A3022 RMK AO2 T01510121


Station Type Date Time Source
KBEC Decoded METAR 2020/09/20 14:15 UTC NOAA

Station name not available
Sep 20, 2020 - 10:15 AM EDT / 2020.09.20 1415 UTC
Wind: from the SSE (160 degrees) at 9 MPH (8 KT):0
Visibility: 10 mile(s):0
Sky conditions: clear
Temperature: 59.2 F (15.1 C)
Dew Point: 53.8 F (12.1 C)
Relative Humidity: 82%
Pressure (altimeter): 30.22 in. Hg (1023 hPa)
ob: KBEC 201415Z AUTO 16008KT 10SM CLR 15/12 A3022 RMK AO2 T01510121
cycle: 14

Station Type Date Time Source
KBEC TAF UTC NOAA

Error!

Example: see airport list